sensor_id;sensor_type;location;lat;lon;timestamp;temperature;humidity
18597;DHT22;9428;50.950;6.912;2023-05-10T00:02:31;14.30;99.90
18597;DHT22;9428;50.950;6.912;2023-05-10T00:05:18;14.60;99.90
18597;DHT22;9428;50.950;6.912;2023-05-10T00:08:06;14.30;99.90
18597;DHT22;9428;50.950;6.912;2023-05-10T00:10:54;14.30;99.90
18597;DHT22;9428;50.950;6.912;2023-05-10T00:13:42;14.30;99.90
18597;DHT22;9428;50.950;6.912;2023-05-10T00:16:29;14.30;99.90
18597;DHT22;9428;50.950;6.912;2023-05-10T00:19:16;14.60;99.90
18597;DHT22;9428;50.950;6.912;2023-05-10T00:22:03;14.30;99.90
18597;DHT22;9428;50.950;6.912;2023-05-10T00:24:50;14.30;99.90
18597;DHT22;9428;50.950;6.912;2023-05-10T00:27:39;14.30;99.90
18597;DHT22;9428;50.950;6.912;2023-05-10T00:30:26;14.30;99.90
18597;DHT22;9428;50.950;6.912;2023-05-10T00:33:13;14.30;99.90
18597;DHT22;9428;50.950;6.912;2023-05-10T00:36:01;14.40;99.90
18597;DHT22;9428;50.950;6.912;2023-05-10T00:38:48;14.30;99.90
18597;DHT22;9428;50.950;6.912;2023-05-10T00:41:35;14.30;99.90
18597;DHT22;9428;50.950;6.912;2023-05-10T00:44:24;14.40;99.90
18597;DHT22;9428;50.950;6.912;2023-05-10T00:47:11;14.30;99.90
18597;DHT22;9428;50.950;6.912;2023-05-10T00:49:58;14.20;99.90
18597;DHT22;9428;50.950;6.912;2023-05-10T00:52:47;14.40;99.90
18597;DHT22;9428;50.950;6.912;2023-05-10T00:55:35;14.40;99.90
18597;DHT22;9428;50.950;6.912;2023-05-10T00:58:22;14.40;99.90
18597;DHT22;9428;50.950;6.912;2023-05-10T01:01:15;15.00;99.90
18597;DHT22;9428;50.950;6.912;2023-05-10T01:04:02;14.40;99.90
18597;DHT22;9428;50.950;6.912;2023-05-10T01:06:50;14.40;99.90
18597;DHT22;9428;50.950;6.912;2023-05-10T01:09:37;14.40;99.90
18597;DHT22;9428;50.950;6.912;2023-05-10T01:12:24;14.40;99.90
18597;DHT22;9428;50.950;6.912;2023-05-10T01:15:12;14.40;99.90
18597;DHT22;9428;50.950;6.912;2023-05-10T01:18:03;14.40;99.90
18597;DHT22;9428;50.950;6.912;2023-05-10T01:21:01;14.40;99.90
18597;DHT22;9428;50.950;6.912;2023-05-10T01:24:17;14.30;99.90
18597;DHT22;9428;50.950;6.912;2023-05-10T01:27:41;14.20;99.90
18597;DHT22;9428;50.950;6.912;2023-05-10T01:31:03;14.30;99.90
18597;DHT22;9428;50.950;6.912;2023-05-10T01:33:59;14.40;99.90
18597;DHT22;9428;50.950;6.912;2023-05-10T01:36:54;14.30;99.90
18597;DHT22;9428;50.950;6.912;2023-05-10T01:39:50;14.30;99.90
18597;DHT22;9428;50.950;6.912;2023-05-10T01:42:46;14.30;99.90
18597;DHT22;9428;50.950;6.912;2023-05-10T01:45:44;14.20;99.90
18597;DHT22;9428;50.950;6.912;2023-05-10T01:48:33;14.30;99.90
18597;DHT22;9428;50.950;6.912;2023-05-10T01:51:25;14.30;99.90
18597;DHT22;9428;50.950;6.912;2023-05-10T01:54:17;14.30;99.90
18597;DHT22;9428;50.950;6.912;2023-05-10T01:57:06;14.10;99.90
18597;DHT22;9428;50.950;6.912;2023-05-10T01:59:59;14.50;99.90
18597;DHT22;9428;50.950;6.912;2023-05-10T02:02:49;14.40;99.90
18597;DHT22;9428;50.950;6.912;2023-05-10T02:05:36;14.30;99.90
18597;DHT22;9428;50.950;6.912;2023-05-10T02:08:26;14.10;99.90
18597;DHT22;9428;50.950;6.912;2023-05-10T02:11:14;14.20;99.90
18597;DHT22;9428;50.950;6.912;2023-05-10T02:14:01;14.20;99.90
18597;DHT22;9428;50.950;6.912;2023-05-10T02:16:50;14.20;99.90
18597;DHT22;9428;50.950;6.912;2023-05-10T02:19:40;14.20;99.90
18597;DHT22;9428;50.950;6.912;2023-05-10T02:22:28;14.20;99.90
18597;DHT22;9428;50.950;6.912;2023-05-10T02:25:18;14.30;99.90
18597;DHT22;9428;50.950;6.912;2023-05-10T02:28:07;14.20;99.90
18597;DHT22;9428;50.950;6.912;2023-05-10T02:30:56;14.20;99.90
18597;DHT22;9428;50.950;6.912;2023-05-10T02:33:44;14.20;99.90
18597;DHT22;9428;50.950;6.912;2023-05-10T02:36:33;14.10;99.90
18597;DHT22;9428;50.950;6.912;2023-05-10T02:39:21;14.10;99.90
18597;DHT22;9428;50.950;6.912;2023-05-10T02:42:15;14.10;99.90
18597;DHT22;9428;50.950;6.912;2023-05-10T02:45:07;14.10;99.90
18597;DHT22;9428;50.950;6.912;2023-05-10T02:47:54;14.10;99.90
18597;DHT22;9428;50.950;6.912;2023-05-10T02:50:44;15.00;99.90
18597;DHT22;9428;50.950;6.912;2023-05-10T02:53:34;14.20;99.90
18597;DHT22;9428;50.950;6.912;2023-05-10T02:56:29;14.10;99.90
18597;DHT22;9428;50.950;6.912;2023-05-10T02:59:20;14.30;99.90
18597;DHT22;9428;50.950;6.912;2023-05-10T03:02:07;14.30;99.90
18597;DHT22;9428;50.950;6.912;2023-05-10T03:04:54;14.40;99.90
18597;DHT22;9428;50.950;6.912;2023-05-10T03:07:42;14.40;99.90
18597;DHT22;9428;50.950;6.912;2023-05-10T03:10:30;14.40;99.90
18597;DHT22;9428;50.950;6.912;2023-05-10T03:13:25;14.30;99.90
18597;DHT22;9428;50.950;6.912;2023-05-10T03:16:21;14.30;99.90
18597;DHT22;9428;50.950;6.912;2023-05-10T03:19:15;14.30;99.90
18597;DHT22;9428;50.950;6.912;2023-05-10T03:22:07;14.20;99.90
18597;DHT22;9428;50.950;6.912;2023-05-10T03:24:56;14.40;99.90
18597;DHT22;9428;50.950;6.912;2023-05-10T03:27:45;14.70;99.90
18597;DHT22;9428;50.950;6.912;2023-05-10T03:30:33;14.30;99.90
18597;DHT22;9428;50.950;6.912;2023-05-10T03:33:22;14.30;99.90
18597;DHT22;9428;50.950;6.912;2023-05-10T03:36:10;14.40;99.90
18597;DHT22;9428;50.950;6.912;2023-05-10T03:38:57;14.90;99.90
18597;DHT22;9428;50.950;6.912;2023-05-10T03:41:44;14.30;99.90
18597;DHT22;9428;50.950;6.912;2023-05-10T03:44:31;14.30;99.90
18597;DHT22;9428;50.950;6.912;2023-05-10T03:47:19;14.30;99.90
18597;DHT22;9428;50.950;6.912;2023-05-10T03:50:08;14.30;99.90
18597;DHT22;9428;50.950;6.912;2023-05-10T03:52:56;14.30;99.90
18597;DHT22;9428;50.950;6.912;2023-05-10T03:55:43;14.30;99.90
18597;DHT22;9428;50.950;6.912;2023-05-10T03:58:30;14.30;99.90
18597;DHT22;9428;50.950;6.912;2023-05-10T04:01:17;14.40;99.90
18597;DHT22;9428;50.950;6.912;2023-05-10T04:04:05;14.30;99.90
18597;DHT22;9428;50.950;6.912;2023-05-10T04:06:53;14.30;99.90
18597;DHT22;9428;50.950;6.912;2023-05-10T04:09:40;14.30;99.90
18597;DHT22;9428;50.950;6.912;2023-05-10T04:12:28;14.40;99.90
18597;DHT22;9428;50.950;6.912;2023-05-10T04:15:15;14.90;99.90
18597;DHT22;9428;50.950;6.912;2023-05-10T04:18:02;14.30;99.90
18597;DHT22;9428;50.950;6.912;2023-05-10T04:20:49;14.10;99.90
18597;DHT22;9428;50.950;6.912;2023-05-10T04:23:38;14.10;99.90
18597;DHT22;9428;50.950;6.912;2023-05-10T04:26:27;14.20;99.90
18597;DHT22;9428;50.950;6.912;2023-05-10T04:29:14;14.20;99.90
18597;DHT22;9428;50.950;6.912;2023-05-10T04:32:01;13.90;99.90
18597;DHT22;9428;50.950;6.912;2023-05-10T04:34:49;14.10;99.90
18597;DHT22;9428;50.950;6.912;2023-05-10T04:37:37;14.20;99.90
18597;DHT22;9428;50.950;6.912;2023-05-10T04:40:25;14.10;99.90
18597;DHT22;9428;50.950;6.912;2023-05-10T04:43:13;14.20;99.90
18597;DHT22;9428;50.950;6.912;2023-05-10T04:46:00;14.20;99.90
18597;DHT22;9428;50.950;6.912;2023-05-10T04:48:47;14.20;99.90
18597;DHT22;9428;50.950;6.912;2023-05-10T04:51:34;14.10;99.90
18597;DHT22;9428;50.950;6.912;2023-05-10T04:54:22;14.20;99.90
18597;DHT22;9428;50.950;6.912;2023-05-10T04:57:10;14.30;99.90
18597;DHT22;9428;50.950;6.912;2023-05-10T04:59:57;14.60;99.90
18597;DHT22;9428;50.950;6.912;2023-05-10T05:02:45;14.10;99.90
18597;DHT22;9428;50.950;6.912;2023-05-10T05:05:32;14.10;99.90
18597;DHT22;9428;50.950;6.912;2023-05-10T05:08:19;14.00;99.90
18597;DHT22;9428;50.950;6.912;2023-05-10T05:11:07;14.10;99.90
18597;DHT22;9428;50.950;6.912;2023-05-10T05:13:55;14.10;99.90
18597;DHT22;9428;50.950;6.912;2023-05-10T05:16:44;14.10;99.90
18597;DHT22;9428;50.950;6.912;2023-05-10T05:19:32;14.10;99.90
18597;DHT22;9428;50.950;6.912;2023-05-10T05:22:19;14.00;99.90
18597;DHT22;9428;50.950;6.912;2023-05-10T05:25:13;14.20;99.90
18597;DHT22;9428;50.950;6.912;2023-05-10T05:28:00;14.10;99.90
18597;DHT22;9428;50.950;6.912;2023-05-10T05:30:49;14.00;99.90
18597;DHT22;9428;50.950;6.912;2023-05-10T05:33:37;14.20;99.90
18597;DHT22;9428;50.950;6.912;2023-05-10T05:36:24;14.20;99.90
18597;DHT22;9428;50.950;6.912;2023-05-10T05:39:11;14.20;99.90
18597;DHT22;9428;50.950;6.912;2023-05-10T05:41:58;14.20;99.90
18597;DHT22;9428;50.950;6.912;2023-05-10T05:44:45;14.20;99.90
18597;DHT22;9428;50.950;6.912;2023-05-10T05:47:34;14.30;99.90
18597;DHT22;9428;50.950;6.912;2023-05-10T05:50:22;14.10;99.90
18597;DHT22;9428;50.950;6.912;2023-05-10T05:53:09;14.20;99.90
18597;DHT22;9428;50.950;6.912;2023-05-10T05:55:57;14.90;99.90
18597;DHT22;9428;50.950;6.912;2023-05-10T05:58:45;15.10;99.90
18597;DHT22;9428;50.950;6.912;2023-05-10T06:01:32;15.10;99.90
18597;DHT22;9428;50.950;6.912;2023-05-10T06:04:21;14.50;99.90
18597;DHT22;9428;50.950;6.912;2023-05-10T06:07:08;14.50;99.90
18597;DHT22;9428;50.950;6.912;2023-05-10T06:09:55;14.50;99.90
18597;DHT22;9428;50.950;6.912;2023-05-10T06:12:42;14.50;99.90
18597;DHT22;9428;50.950;6.912;2023-05-10T06:15:30;14.30;99.90
18597;DHT22;9428;50.950;6.912;2023-05-10T06:18:18;14.30;99.90
18597;DHT22;9428;50.950;6.912;2023-05-10T06:21:06;14.40;99.90
18597;DHT22;9428;50.950;6.912;2023-05-10T06:23:54;14.40;99.90
18597;DHT22;9428;50.950;6.912;2023-05-10T06:26:41;14.40;99.90
18597;DHT22;9428;50.950;6.912;2023-05-10T06:29:28;14.30;99.90
18597;DHT22;9428;50.950;6.912;2023-05-10T06:32:15;14.40;99.90
18597;DHT22;9428;50.950;6.912;2023-05-10T06:35:03;14.40;99.90
18597;DHT22;9428;50.950;6.912;2023-05-10T06:37:51;14.30;99.90
18597;DHT22;9428;50.950;6.912;2023-05-10T06:40:41;14.30;99.90
18597;DHT22;9428;50.950;6.912;2023-05-10T06:43:28;14.30;99.90
18597;DHT22;9428;50.950;6.912;2023-05-10T06:46:15;14.30;99.90
18597;DHT22;9428;50.950;6.912;2023-05-10T06:49:02;14.30;99.90
18597;DHT22;9428;50.950;6.912;2023-05-10T06:51:50;15.10;99.90
18597;DHT22;9428;50.950;6.912;2023-05-10T06:54:39;14.40;99.90
18597;DHT22;9428;50.950;6.912;2023-05-10T06:57:26;14.30;99.90
18597;DHT22;9428;50.950;6.912;2023-05-10T07:00:14;14.30;99.90
18597;DHT22;9428;50.950;6.912;2023-05-10T07:03:01;14.20;99.90
18597;DHT22;9428;50.950;6.912;2023-05-10T07:05:49;14.10;99.90
18597;DHT22;9428;50.950;6.912;2023-05-10T07:08:36;14.00;99.90
18597;DHT22;9428;50.950;6.912;2023-05-10T07:11:24;14.20;99.90
18597;DHT22;9428;50.950;6.912;2023-05-10T07:14:12;14.10;99.90
18597;DHT22;9428;50.950;6.912;2023-05-10T07:16:59;14.10;99.90
18597;DHT22;9428;50.950;6.912;2023-05-10T07:19:46;14.20;99.90
18597;DHT22;9428;50.950;6.912;2023-05-10T07:22:34;14.20;99.90
18597;DHT22;9428;50.950;6.912;2023-05-10T07:25:21;14.30;99.90
18597;DHT22;9428;50.950;6.912;2023-05-10T07:28:10;14.30;99.90
18597;DHT22;9428;50.950;6.912;2023-05-10T07:30:57;14.70;99.90
18597;DHT22;9428;50.950;6.912;2023-05-10T07:33:44;14.30;99.90
18597;DHT22;9428;50.950;6.912;2023-05-10T07:36:31;14.40;99.90
18597;DHT22;9428;50.950;6.912;2023-05-10T07:39:18;14.30;99.90
18597;DHT22;9428;50.950;6.912;2023-05-10T07:42:06;14.30;99.90
18597;DHT22;9428;50.950;6.912;2023-05-10T07:44:55;14.30;99.90
18597;DHT22;9428;50.950;6.912;2023-05-10T07:47:42;14.30;99.90
18597;DHT22;9428;50.950;6.912;2023-05-10T07:50:30;14.30;99.90
18597;DHT22;9428;50.950;6.912;2023-05-10T07:53:17;13.90;99.90
18597;DHT22;9428;50.950;6.912;2023-05-10T07:56:21;14.60;99.90
18597;DHT22;9428;50.950;6.912;2023-05-10T07:59:08;14.30;99.90
18597;DHT22;9428;50.950;6.912;2023-05-10T08:01:57;14.20;99.90
18597;DHT22;9428;50.950;6.912;2023-05-10T08:04:44;14.30;99.90
18597;DHT22;9428;50.950;6.912;2023-05-10T08:07:32;14.20;99.90
18597;DHT22;9428;50.950;6.912;2023-05-10T08:10:19;14.30;99.90
18597;DHT22;9428;50.950;6.912;2023-05-10T08:13:06;14.40;99.90
18597;DHT22;9428;50.950;6.912;2023-05-10T08:15:54;14.50;99.90
18597;DHT22;9428;50.950;6.912;2023-05-10T08:18:43;14.50;99.90
18597;DHT22;9428;50.950;6.912;2023-05-10T08:21:32;14.60;99.90
18597;DHT22;9428;50.950;6.912;2023-05-10T08:24:19;14.60;99.90
18597;DHT22;9428;50.950;6.912;2023-05-10T08:27:07;14.60;99.90
18597;DHT22;9428;50.950;6.912;2023-05-10T08:29:54;14.60;99.90
18597;DHT22;9428;50.950;6.912;2023-05-10T08:32:42;14.60;99.90
18597;DHT22;9428;50.950;6.912;2023-05-10T08:35:30;14.60;99.90
18597;DHT22;9428;50.950;6.912;2023-05-10T08:38:19;14.70;99.90
18597;DHT22;9428;50.950;6.912;2023-05-10T08:41:06;14.70;99.90
18597;DHT22;9428;50.950;6.912;2023-05-10T08:43:54;14.70;99.90
18597;DHT22;9428;50.950;6.912;2023-05-10T08:46:42;15.30;99.90
18597;DHT22;9428;50.950;6.912;2023-05-10T08:49:31;15.30;99.90
18597;DHT22;9428;50.950;6.912;2023-05-10T08:52:20;14.80;99.90
18597;DHT22;9428;50.950;6.912;2023-05-10T08:55:08;14.80;99.90
18597;DHT22;9428;50.950;6.912;2023-05-10T08:57:56;15.00;99.90
18597;DHT22;9428;50.950;6.912;2023-05-10T09:00:43;15.10;99.90
18597;DHT22;9428;50.950;6.912;2023-05-10T09:03:31;15.00;99.90
18597;DHT22;9428;50.950;6.912;2023-05-10T09:06:18;14.90;99.90
18597;DHT22;9428;50.950;6.912;2023-05-10T09:09:07;14.90;99.90
18597;DHT22;9428;50.950;6.912;2023-05-10T09:11:54;15.10;99.90
18597;DHT22;9428;50.950;6.912;2023-05-10T09:14:43;15.00;99.90
18597;DHT22;9428;50.950;6.912;2023-05-10T09:17:31;15.40;99.90
18597;DHT22;9428;50.950;6.912;2023-05-10T09:20:19;15.10;99.90
18597;DHT22;9428;50.950;6.912;2023-05-10T09:23:06;15.70;99.90
18597;DHT22;9428;50.950;6.912;2023-05-10T09:26:03;15.30;99.90
18597;DHT22;9428;50.950;6.912;2023-05-10T09:28:51;15.30;99.90
18597;DHT22;9428;50.950;6.912;2023-05-10T09:31:46;15.30;99.90
18597;DHT22;9428;50.950;6.912;2023-05-10T09:34:36;15.20;99.90
18597;DHT22;9428;50.950;6.912;2023-05-10T09:37:29;15.40;99.90
18597;DHT22;9428;50.950;6.912;2023-05-10T09:40:17;14.90;99.90
18597;DHT22;9428;50.950;6.912;2023-05-10T09:43:07;14.90;99.90
18597;DHT22;9428;50.950;6.912;2023-05-10T09:45:56;15.20;99.90
18597;DHT22;9428;50.950;6.912;2023-05-10T09:48:45;15.00;99.90
18597;DHT22;9428;50.950;6.912;2023-05-10T09:51:34;14.90;99.90
18597;DHT22;9428;50.950;6.912;2023-05-10T09:54:21;14.90;99.90
18597;DHT22;9428;50.950;6.912;2023-05-10T09:57:20;15.10;99.90
18597;DHT22;9428;50.950;6.912;2023-05-10T10:00:09;15.30;99.90
18597;DHT22;9428;50.950;6.912;2023-05-10T10:02:59;15.40;99.90
18597;DHT22;9428;50.950;6.912;2023-05-10T10:05:47;15.80;99.90
18597;DHT22;9428;50.950;6.912;2023-05-10T10:08:35;16.00;99.90
18597;DHT22;9428;50.950;6.912;2023-05-10T10:11:23;15.80;99.90
18597;DHT22;9428;50.950;6.912;2023-05-10T10:14:11;16.00;99.90
18597;DHT22;9428;50.950;6.912;2023-05-10T10:17:01;15.90;99.90
18597;DHT22;9428;50.950;6.912;2023-05-10T10:19:48;16.10;99.90
18597;DHT22;9428;50.950;6.912;2023-05-10T10:22:36;16.10;99.90
18597;DHT22;9428;50.950;6.912;2023-05-10T10:25:25;15.90;99.90
18597;DHT22;9428;50.950;6.912;2023-05-10T10:28:22;15.90;99.90
18597;DHT22;9428;50.950;6.912;2023-05-10T10:31:17;15.90;99.90
18597;DHT22;9428;50.950;6.912;2023-05-10T10:34:09;16.10;99.90
18597;DHT22;9428;50.950;6.912;2023-05-10T10:37:04;16.20;99.90
18597;DHT22;9428;50.950;6.912;2023-05-10T10:39:53;16.40;99.90
18597;DHT22;9428;50.950;6.912;2023-05-10T10:42:45;16.40;99.90
18597;DHT22;9428;50.950;6.912;2023-05-10T10:45:33;16.40;99.90
18597;DHT22;9428;50.950;6.912;2023-05-10T10:48:21;16.30;99.90
18597;DHT22;9428;50.950;6.912;2023-05-10T10:51:10;16.30;99.90
18597;DHT22;9428;50.950;6.912;2023-05-10T10:54:08;16.20;99.90
18597;DHT22;9428;50.950;6.912;2023-05-10T10:57:11;16.00;99.90
18597;DHT22;9428;50.950;6.912;2023-05-10T11:00:24;15.90;99.90
18597;DHT22;9428;50.950;6.912;2023-05-10T11:03:12;16.20;99.90
18597;DHT22;9428;50.950;6.912;2023-05-10T11:06:03;16.30;99.90
18597;DHT22;9428;50.950;6.912;2023-05-10T11:08:51;16.30;99.90
18597;DHT22;9428;50.950;6.912;2023-05-10T11:11:49;16.20;99.90
18597;DHT22;9428;50.950;6.912;2023-05-10T11:14:37;16.50;99.90
18597;DHT22;9428;50.950;6.912;2023-05-10T11:17:26;16.50;99.90
18597;DHT22;9428;50.950;6.912;2023-05-10T11:20:15;16.60;99.90
18597;DHT22;9428;50.950;6.912;2023-05-10T11:23:11;16.60;99.90
18597;DHT22;9428;50.950;6.912;2023-05-10T11:26:02;16.70;99.90
18597;DHT22;9428;50.950;6.912;2023-05-10T11:28:53;16.80;99.90
18597;DHT22;9428;50.950;6.912;2023-05-10T11:31:44;17.00;99.90
18597;DHT22;9428;50.950;6.912;2023-05-10T11:34:32;17.10;99.90
18597;DHT22;9428;50.950;6.912;2023-05-10T11:37:20;17.10;99.90
18597;DHT22;9428;50.950;6.912;2023-05-10T11:40:08;16.90;99.90
18597;DHT22;9428;50.950;6.912;2023-05-10T11:42:57;16.80;99.90
18597;DHT22;9428;50.950;6.912;2023-05-10T11:45:45;16.90;99.90
18597;DHT22;9428;50.950;6.912;2023-05-10T11:48:32;16.50;99.90
18597;DHT22;9428;50.950;6.912;2023-05-10T11:51:20;16.60;99.90
18597;DHT22;9428;50.950;6.912;2023-05-10T11:54:10;16.70;99.90
18597;DHT22;9428;50.950;6.912;2023-05-10T11:56:57;16.40;99.90
18597;DHT22;9428;50.950;6.912;2023-05-10T11:59:46;16.40;99.90
18597;DHT22;9428;50.950;6.912;2023-05-10T12:02:33;16.50;99.90
18597;DHT22;9428;50.950;6.912;2023-05-10T12:05:21;16.70;99.90
18597;DHT22;9428;50.950;6.912;2023-05-10T12:08:12;17.00;99.90
18597;DHT22;9428;50.950;6.912;2023-05-10T12:11:07;16.90;99.90
18597;DHT22;9428;50.950;6.912;2023-05-10T12:13:55;17.20;99.90
18597;DHT22;9428;50.950;6.912;2023-05-10T12:16:44;17.30;99.90
18597;DHT22;9428;50.950;6.912;2023-05-10T12:19:37;17.30;99.90
18597;DHT22;9428;50.950;6.912;2023-05-10T12:22:24;17.00;99.90
18597;DHT22;9428;50.950;6.912;2023-05-10T12:25:11;17.00;99.90
18597;DHT22;9428;50.950;6.912;2023-05-10T12:28:00;16.90;99.90
18597;DHT22;9428;50.950;6.912;2023-05-10T12:30:47;16.90;99.90
18597;DHT22;9428;50.950;6.912;2023-05-10T12:33:40;17.20;99.90
18597;DHT22;9428;50.950;6.912;2023-05-10T12:36:28;16.70;99.90
18597;DHT22;9428;50.950;6.912;2023-05-10T12:39:15;17.00;99.90
18597;DHT22;9428;50.950;6.912;2023-05-10T12:42:02;17.20;99.90
18597;DHT22;9428;50.950;6.912;2023-05-10T12:44:55;17.20;99.90
18597;DHT22;9428;50.950;6.912;2023-05-10T12:47:42;17.40;99.90
18597;DHT22;9428;50.950;6.912;2023-05-10T12:50:30;17.50;99.90
18597;DHT22;9428;50.950;6.912;2023-05-10T12:53:18;17.30;99.90
18597;DHT22;9428;50.950;6.912;2023-05-10T12:56:06;17.40;99.90
18597;DHT22;9428;50.950;6.912;2023-05-10T12:58:53;17.50;99.90
18597;DHT22;9428;50.950;6.912;2023-05-10T13:01:40;17.60;99.90
18597;DHT22;9428;50.950;6.912;2023-05-10T13:04:27;17.70;99.90
18597;DHT22;9428;50.950;6.912;2023-05-10T13:07:16;17.70;99.90
18597;DHT22;9428;50.950;6.912;2023-05-10T13:10:04;17.70;99.90
18597;DHT22;9428;50.950;6.912;2023-05-10T13:12:51;17.40;99.90
18597;DHT22;9428;50.950;6.912;2023-05-10T13:15:39;17.30;99.90
18597;DHT22;9428;50.950;6.912;2023-05-10T13:18:26;17.20;99.90
18597;DHT22;9428;50.950;6.912;2023-05-10T13:21:13;17.00;99.90
18597;DHT22;9428;50.950;6.912;2023-05-10T13:24:02;17.20;99.90
18597;DHT22;9428;50.950;6.912;2023-05-10T13:26:49;17.40;99.90
18597;DHT22;9428;50.950;6.912;2023-05-10T13:29:36;17.40;99.90
18597;DHT22;9428;50.950;6.912;2023-05-10T13:32:23;17.20;99.90
18597;DHT22;9428;50.950;6.912;2023-05-10T13:35:11;17.00;99.90
18597;DHT22;9428;50.950;6.912;2023-05-10T13:37:58;17.10;99.90
18597;DHT22;9428;50.950;6.912;2023-05-10T13:40:47;17.30;99.90
18597;DHT22;9428;50.950;6.912;2023-05-10T13:43:38;17.40;99.90
18597;DHT22;9428;50.950;6.912;2023-05-10T13:46:25;17.30;99.90
18597;DHT22;9428;50.950;6.912;2023-05-10T13:49:12;17.50;99.90
18597;DHT22;9428;50.950;6.912;2023-05-10T13:51:59;17.40;99.90
18597;DHT22;9428;50.950;6.912;2023-05-10T13:54:51;17.60;99.90
18597;DHT22;9428;50.950;6.912;2023-05-10T13:57:42;17.80;99.90
18597;DHT22;9428;50.950;6.912;2023-05-10T14:00:29;17.90;99.90
18597;DHT22;9428;50.950;6.912;2023-05-10T14:03:16;17.90;99.90
18597;DHT22;9428;50.950;6.912;2023-05-10T14:06:04;17.80;99.90
18597;DHT22;9428;50.950;6.912;2023-05-10T14:08:53;17.80;99.90
18597;DHT22;9428;50.950;6.912;2023-05-10T14:11:40;17.60;99.90
18597;DHT22;9428;50.950;6.912;2023-05-10T14:14:30;17.70;99.90
18597;DHT22;9428;50.950;6.912;2023-05-10T14:17:17;17.80;99.90
18597;DHT22;9428;50.950;6.912;2023-05-10T14:20:06;18.00;99.90
18597;DHT22;9428;50.950;6.912;2023-05-10T14:22:54;18.10;99.90
18597;DHT22;9428;50.950;6.912;2023-05-10T14:25:41;18.00;99.90
18597;DHT22;9428;50.950;6.912;2023-05-10T14:28:28;18.00;99.90
18597;DHT22;9428;50.950;6.912;2023-05-10T14:31:17;17.80;99.90
18597;DHT22;9428;50.950;6.912;2023-05-10T14:34:06;17.90;99.90
18597;DHT22;9428;50.950;6.912;2023-05-10T14:36:53;17.80;99.90
18597;DHT22;9428;50.950;6.912;2023-05-10T14:39:40;17.60;99.90
18597;DHT22;9428;50.950;6.912;2023-05-10T14:42:28;17.90;99.90
18597;DHT22;9428;50.950;6.912;2023-05-10T14:45:15;17.80;99.90
18597;DHT22;9428;50.950;6.912;2023-05-10T14:48:04;17.90;99.90
18597;DHT22;9428;50.950;6.912;2023-05-10T14:50:51;17.90;99.90
18597;DHT22;9428;50.950;6.912;2023-05-10T14:53:38;17.90;99.90
18597;DHT22;9428;50.950;6.912;2023-05-10T14:56:26;17.70;99.90
18597;DHT22;9428;50.950;6.912;2023-05-10T14:59:13;17.70;99.90
18597;DHT22;9428;50.950;6.912;2023-05-10T15:02:00;18.00;99.90
18597;DHT22;9428;50.950;6.912;2023-05-10T15:04:50;18.10;99.90
18597;DHT22;9428;50.950;6.912;2023-05-10T15:07:37;18.00;99.90
18597;DHT22;9428;50.950;6.912;2023-05-10T15:10:24;18.20;99.90
18597;DHT22;9428;50.950;6.912;2023-05-10T15:13:12;18.00;99.90
18597;DHT22;9428;50.950;6.912;2023-05-10T15:15:59;17.20;99.90
18597;DHT22;9428;50.950;6.912;2023-05-10T15:18:47;17.50;99.90
18597;DHT22;9428;50.950;6.912;2023-05-10T15:21:35;17.30;99.90
18597;DHT22;9428;50.950;6.912;2023-05-10T15:24:24;17.30;99.90
18597;DHT22;9428;50.950;6.912;2023-05-10T15:27:11;17.30;99.90
18597;DHT22;9428;50.950;6.912;2023-05-10T15:30:00;17.50;99.90
18597;DHT22;9428;50.950;6.912;2023-05-10T15:32:47;17.80;99.90
18597;DHT22;9428;50.950;6.912;2023-05-10T15:35:34;17.70;99.90
18597;DHT22;9428;50.950;6.912;2023-05-10T15:38:25;17.80;99.90
18597;DHT22;9428;50.950;6.912;2023-05-10T15:41:12;18.00;99.90
18597;DHT22;9428;50.950;6.912;2023-05-10T15:43:59;18.00;99.90
18597;DHT22;9428;50.950;6.912;2023-05-10T15:46:47;18.00;99.90
18597;DHT22;9428;50.950;6.912;2023-05-10T15:49:34;18.00;99.90
18597;DHT22;9428;50.950;6.912;2023-05-10T15:52:21;18.00;99.90
18597;DHT22;9428;50.950;6.912;2023-05-10T15:55:10;17.90;99.90
18597;DHT22;9428;50.950;6.912;2023-05-10T15:57:58;18.00;99.90
18597;DHT22;9428;50.950;6.912;2023-05-10T16:00:45;17.90;99.90
18597;DHT22;9428;50.950;6.912;2023-05-10T16:03:33;18.00;99.90
18597;DHT22;9428;50.950;6.912;2023-05-10T16:06:20;18.00;99.90
18597;DHT22;9428;50.950;6.912;2023-05-10T16:09:08;18.20;99.90
18597;DHT22;9428;50.950;6.912;2023-05-10T16:11:56;18.00;99.90
18597;DHT22;9428;50.950;6.912;2023-05-10T16:14:44;17.90;99.90
18597;DHT22;9428;50.950;6.912;2023-05-10T16:17:31;17.60;99.90
18597;DHT22;9428;50.950;6.912;2023-05-10T16:20:18;17.30;99.90
18597;DHT22;9428;50.950;6.912;2023-05-10T16:23:06;17.40;99.90
18597;DHT22;9428;50.950;6.912;2023-05-10T16:25:56;17.50;99.90
18597;DHT22;9428;50.950;6.912;2023-05-10T16:28:45;17.60;99.90
18597;DHT22;9428;50.950;6.912;2023-05-10T16:31:33;17.60;99.90
18597;DHT22;9428;50.950;6.912;2023-05-10T16:34:20;17.70;99.90
18597;DHT22;9428;50.950;6.912;2023-05-10T16:37:09;17.80;99.90
18597;DHT22;9428;50.950;6.912;2023-05-10T16:39:56;17.50;99.90
18597;DHT22;9428;50.950;6.912;2023-05-10T16:42:44;17.40;99.90
18597;DHT22;9428;50.950;6.912;2023-05-10T16:45:33;17.40;99.90
18597;DHT22;9428;50.950;6.912;2023-05-10T16:48:22;17.40;99.90
18597;DHT22;9428;50.950;6.912;2023-05-10T16:51:09;17.30;99.90
18597;DHT22;9428;50.950;6.912;2023-05-10T16:53:57;17.40;99.90
18597;DHT22;9428;50.950;6.912;2023-05-10T16:56:44;17.20;99.90
18597;DHT22;9428;50.950;6.912;2023-05-10T16:59:31;17.20;99.90
18597;DHT22;9428;50.950;6.912;2023-05-10T17:02:20;17.20;99.90
18597;DHT22;9428;50.950;6.912;2023-05-10T17:05:10;17.20;99.90
18597;DHT22;9428;50.950;6.912;2023-05-10T17:07:57;17.10;99.90
18597;DHT22;9428;50.950;6.912;2023-05-10T17:10:44;17.10;99.90
18597;DHT22;9428;50.950;6.912;2023-05-10T17:13:32;17.20;99.90
18597;DHT22;9428;50.950;6.912;2023-05-10T17:16:19;17.00;99.90
18597;DHT22;9428;50.950;6.912;2023-05-10T17:19:08;17.10;99.90
18597;DHT22;9428;50.950;6.912;2023-05-10T17:21:56;17.10;99.90
18597;DHT22;9428;50.950;6.912;2023-05-10T17:24:44;17.00;99.90
18597;DHT22;9428;50.950;6.912;2023-05-10T17:27:31;17.00;99.90
18597;DHT22;9428;50.950;6.912;2023-05-10T17:30:18;17.20;99.90
18597;DHT22;9428;50.950;6.912;2023-05-10T17:33:11;17.30;99.90
18597;DHT22;9428;50.950;6.912;2023-05-10T17:35:59;17.30;99.90
18597;DHT22;9428;50.950;6.912;2023-05-10T17:38:47;17.40;99.90
18597;DHT22;9428;50.950;6.912;2023-05-10T17:41:37;17.20;99.90
18597;DHT22;9428;50.950;6.912;2023-05-10T17:44:24;17.30;99.90
18597;DHT22;9428;50.950;6.912;2023-05-10T17:47:11;17.40;99.90
18597;DHT22;9428;50.950;6.912;2023-05-10T17:49:59;17.30;99.90
18597;DHT22;9428;50.950;6.912;2023-05-10T17:52:47;17.30;99.90
18597;DHT22;9428;50.950;6.912;2023-05-10T17:55:34;17.30;99.90
18597;DHT22;9428;50.950;6.912;2023-05-10T17:58:22;17.10;99.90
18597;DHT22;9428;50.950;6.912;2023-05-10T18:01:09;17.10;99.90
18597;DHT22;9428;50.950;6.912;2023-05-10T18:03:56;17.00;99.90